sensor_id;sensor_type;location;lat;lon;timestamp;pressure;altitude;pressure_sealevel;temperature;humidity
20909;BME280;10614;53.198;6.570;2023-02-01T00:01:57;101590.34;;;5.53;100.00
20909;BME280;10614;53.198;6.570;2023-02-01T00:04:00;101586.81;;;5.55;100.00
20909;BME280;10614;53.198;6.570;2023-02-01T00:06:01;101599.00;;;5.56;100.00
20909;BME280;10614;53.198;6.570;2023-02-01T00:08:04;101571.97;;;5.59;100.00
20909;BME280;10614;53.198;6.570;2023-02-01T00:10:07;101609.44;;;5.56;100.00
20909;BME280;10614;53.198;6.570;2023-02-01T00:12:09;101592.91;;;5.57;100.00
20909;BME280;10614;53.198;6.570;2023-02-01T00:14:10;101581.56;;;5.58;100.00
20909;BME280;10614;53.198;6.570;2023-02-01T00:16:13;101572.03;;;5.57;100.00
20909;BME280;10614;53.198;6.570;2023-02-01T00:18:17;101566.75;;;5.59;100.00
20909;BME280;10614;53.198;6.570;2023-02-01T00:20:19;101568.56;;;5.55;100.00
20909;BME280;10614;53.198;6.570;2023-02-01T00:22:21;101579.84;;;5.57;100.00
20909;BME280;10614;53.198;6.570;2023-02-01T00:24:22;101580.72;;;5.58;100.00
20909;BME280;10614;53.198;6.570;2023-02-01T00:26:27;101575.50;;;5.56;100.00
20909;BME280;10614;53.198;6.570;2023-02-01T00:28:32;101555.50;;;5.55;100.00
20909;BME280;10614;53.198;6.570;2023-02-01T00:30:33;101551.13;;;5.54;100.00
20909;BME280;10614;53.198;6.570;2023-02-01T00:32:35;101578.09;;;5.58;100.00
20909;BME280;10614;53.198;6.570;2023-02-01T00:34:38;101569.41;;;5.57;100.00
20909;BME280;10614;53.198;6.570;2023-02-01T00:36:40;101564.22;;;5.53;100.00
20909;BME280;10614;53.198;6.570;2023-02-01T00:38:42;101553.75;;;5.56;100.00
20909;BME280;10614;53.198;6.570;2023-02-01T00:40:44;101577.25;;;5.54;100.00
20909;BME280;10614;53.198;6.570;2023-02-01T00:42:46;101572.03;;;5.56;100.00
20909;BME280;10614;53.198;6.570;2023-02-01T00:44:47;101572.03;;;5.57;100.00
20909;BME280;10614;53.198;6.570;2023-02-01T00:46:49;101572.03;;;5.57;100.00
20909;BME280;10614;53.198;6.570;2023-02-01T00:48:51;101558.94;;;5.59;100.00
20909;BME280;10614;53.198;6.570;2023-02-01T00:50:54;101565.00;;;5.61;100.00
20909;BME280;10614;53.198;6.570;2023-02-01T00:52:55;101561.53;;;5.60;100.00
20909;BME280;10614;53.198;6.570;2023-02-01T00:54:57;101576.34;;;5.60;100.00
20909;BME280;10614;53.198;6.570;2023-02-01T00:56:59;101552.81;;;5.61;100.00
20909;BME280;10614;53.198;6.570;2023-02-01T00:59:00;101550.19;;;5.61;100.00
20909;BME280;10614;53.198;6.570;2023-02-01T01:01:04;101552.81;;;5.63;100.00
20909;BME280;10614;53.198;6.570;2023-02-01T01:03:06;101559.75;;;5.64;100.00
20909;BME280;10614;53.198;6.570;2023-02-01T01:05:17;101551.91;;;5.64;100.00
20909;BME280;10614;53.198;6.570;2023-02-01T01:07:21;101558.88;;;5.65;100.00
20909;BME280;10614;53.198;6.570;2023-02-01T01:09:22;101554.56;;;5.62;100.00
20909;BME280;10614;53.198;6.570;2023-02-01T01:11:26;101554.56;;;5.62;100.00
20909;BME280;10614;53.198;6.570;2023-02-01T01:13:27;101540.59;;;5.65;100.00
20909;BME280;10614;53.198;6.570;2023-02-01T01:15:29;101526.66;;;5.66;100.00
20909;BME280;10614;53.198;6.570;2023-02-01T01:17:31;101535.38;;;5.65;100.00
20909;BME280;10614;53.198;6.570;2023-02-01T01:19:32;101547.56;;;5.66;100.00
20909;BME280;10614;53.198;6.570;2023-02-01T01:21:34;101533.66;;;5.62;100.00
20909;BME280;10614;53.198;6.570;2023-02-01T01:23:37;101519.72;;;5.65;100.00
20909;BME280;10614;53.198;6.570;2023-02-01T01:25:39;101521.44;;;5.66;100.00
20909;BME280;10614;53.198;6.570;2023-02-01T01:27:41;101525.75;;;5.68;100.00
20909;BME280;10614;53.198;6.570;2023-02-01T01:29:43;101551.91;;;5.67;100.00
20909;BME280;10614;53.198;6.570;2023-02-01T01:31:44;101501.44;;;5.65;100.00
20909;BME280;10614;53.198;6.570;2023-02-01T01:33:48;101516.19;;;5.67;100.00
20909;BME280;10614;53.198;6.570;2023-02-01T01:35:50;101509.22;;;5.69;100.00
20909;BME280;10614;53.198;6.570;2023-02-01T01:37:52;101513.59;;;5.69;100.00
20909;BME280;10614;53.198;6.570;2023-02-01T01:39:54;101504.88;;;5.68;100.00
20909;BME280;10614;53.198;6.570;2023-02-01T01:41:56;101538.84;;;5.67;100.00
20909;BME280;10614;53.198;6.570;2023-02-01T01:44:00;101499.69;;;5.67;100.00
20909;BME280;10614;53.198;6.570;2023-02-01T01:46:02;101491.81;;;5.68;100.00
20909;BME280;10614;53.198;6.570;2023-02-01T01:48:07;101507.47;;;5.68;100.00
20909;BME280;10614;53.198;6.570;2023-02-01T01:50:14;101503.16;;;5.69;100.00
20909;BME280;10614;53.198;6.570;2023-02-01T01:52:17;101505.75;;;5.66;100.00
20909;BME280;10614;53.198;6.570;2023-02-01T01:54:21;101483.16;;;5.62;100.00
20909;BME280;10614;53.198;6.570;2023-02-01T01:56:27;101487.50;;;5.61;100.00
20909;BME280;10614;53.198;6.570;2023-02-01T01:58:32;101488.41;;;5.59;100.00
20909;BME280;10614;53.198;6.570;2023-02-01T02:00:34;101482.34;;;5.58;100.00
20909;BME280;10614;53.198;6.570;2023-02-01T02:02:37;101481.47;;;5.56;100.00
20909;BME280;10614;53.198;6.570;2023-02-01T02:04:39;101486.69;;;5.55;100.00
20909;BME280;10614;53.198;6.570;2023-02-01T02:06:45;101480.66;;;5.51;100.00
20909;BME280;10614;53.198;6.570;2023-02-01T02:08:48;101485.03;;;5.47;100.00
20909;BME280;10614;53.198;6.570;2023-02-01T02:10:51;101475.47;;;5.45;100.00
20909;BME280;10614;53.198;6.570;2023-02-01T02:13:03;101470.25;;;5.46;100.00
20909;BME280;10614;53.198;6.570;2023-02-01T02:15:05;101483.31;;;5.45;100.00
20909;BME280;10614;53.198;6.570;2023-02-01T02:17:17;101459.00;;;5.41;100.00
20909;BME280;10614;53.198;6.570;2023-02-01T02:22:17;101459.88;;;5.37;100.00
20909;BME280;10614;53.198;6.570;2023-02-01T02:24:43;101477.31;;;5.34;100.00
20909;BME280;10614;53.198;6.570;2023-02-01T02:27:02;101457.31;;;5.34;100.00
20909;BME280;10614;53.198;6.570;2023-02-01T02:29:44;101459.06;;;5.31;100.00
20909;BME280;10614;53.198;6.570;2023-02-01T02:32:09;101446.06;;;5.26;100.00
20909;BME280;10614;53.198;6.570;2023-02-01T02:34:19;101436.50;;;5.25;100.00
20909;BME280;10614;53.198;6.570;2023-02-01T02:36:33;101450.41;;;5.27;100.00
20909;BME280;10614;53.198;6.570;2023-02-01T02:38:41;101439.13;;;5.22;100.00
20909;BME280;10614;53.198;6.570;2023-02-01T02:40:49;101433.06;;;5.20;100.00
20909;BME280;10614;53.198;6.570;2023-02-01T02:43:03;101419.13;;;5.19;100.00
20909;BME280;10614;53.198;6.570;2023-02-01T02:45:28;101440.00;;;5.21;100.00
20909;BME280;10614;53.198;6.570;2023-02-01T02:47:55;101412.19;;;5.20;100.00
20909;BME280;10614;53.198;6.570;2023-02-01T02:50:05;101399.16;;;5.20;100.00
20909;BME280;10614;53.198;6.570;2023-02-01T02:52:28;101406.13;;;5.18;100.00
20909;BME280;10614;53.198;6.570;2023-02-01T02:54:49;101408.72;;;5.15;100.00
20909;BME280;10614;53.198;6.570;2023-02-01T02:56:53;101414.81;;;5.18;100.00
20909;BME280;10614;53.198;6.570;2023-02-01T02:59:16;101399.16;;;5.20;100.00
20909;BME280;10614;53.198;6.570;2023-02-01T03:01:37;101396.50;;;5.21;100.00
20909;BME280;10614;53.198;6.570;2023-02-01T03:03:56;101413.06;;;5.19;100.00
20909;BME280;10614;53.198;6.570;2023-02-01T03:06:13;101428.69;;;5.23;100.00
20909;BME280;10614;53.198;6.570;2023-02-01T03:08:17;101403.44;;;5.24;100.00
20909;BME280;10614;53.198;6.570;2023-02-01T03:10:26;101402.53;;;5.26;100.00
20909;BME280;10614;53.198;6.570;2023-02-01T03:12:33;101401.63;;;5.31;100.00
20909;BME280;10614;53.198;6.570;2023-02-01T03:14:57;101396.41;;;5.31;100.00
20909;BME280;10614;53.198;6.570;2023-02-01T03:17:04;101411.22;;;5.30;100.00
20909;BME280;10614;53.198;6.570;2023-02-01T03:19:14;101399.88;;;5.33;100.00
20909;BME280;10614;53.198;6.570;2023-02-01T03:21:21;101400.75;;;5.33;100.00
20909;BME280;10614;53.198;6.570;2023-02-01T03:23:27;101425.94;;;5.36;100.00
20909;BME280;10614;53.198;6.570;2023-02-01T03:25:32;101386.78;;;5.37;100.00
20909;BME280;10614;53.198;6.570;2023-02-01T03:27:37;101380.66;;;5.38;100.00
20909;BME280;10614;53.198;6.570;2023-02-01T03:29:46;101373.72;;;5.39;100.00
20909;BME280;10614;53.198;6.570;2023-02-01T03:31:49;101390.25;;;5.41;100.00
20909;BME280;10614;53.198;6.570;2023-02-01T03:33:52;101422.41;;;5.43;100.00
20909;BME280;10614;53.198;6.570;2023-02-01T03:35:59;101377.16;;;5.44;100.00
20909;BME280;10614;53.198;6.570;2023-02-01T03:38:10;101385.84;;;5.43;100.00
20909;BME280;10614;53.198;6.570;2023-02-01T03:40:15;101361.50;;;5.42;100.00
20909;BME280;10614;53.198;6.570;2023-02-01T03:42:23;101369.31;;;5.42;100.00
20909;BME280;10614;53.198;6.570;2023-02-01T03:44:30;101367.56;;;5.44;100.00
20909;BME280;10614;53.198;6.570;2023-02-01T03:46:35;101370.19;;;5.43;100.00
20909;BME280;10614;53.198;6.570;2023-02-01T03:48:39;101373.69;;;5.43;100.00
20909;BME280;10614;53.198;6.570;2023-02-01T03:50:46;101362.34;;;5.44;100.00
20909;BME280;10614;53.198;6.570;2023-02-01T03:52:53;101369.31;;;5.44;100.00
20909;BME280;10614;53.198;6.570;2023-02-01T03:54:57;101345.78;;;5.45;100.00
20909;BME280;10614;53.198;6.570;2023-02-01T03:57:05;101360.59;;;5.46;100.00
20909;BME280;10614;53.198;6.570;2023-02-01T03:59:09;101367.53;;;5.47;100.00
20909;BME280;10614;53.198;6.570;2023-02-01T04:01:11;101372.78;;;5.44;100.00
20909;BME280;10614;53.198;6.570;2023-02-01T04:03:13;101367.59;;;5.41;100.00
20909;BME280;10614;53.198;6.570;2023-02-01T04:05:14;101360.69;;;5.39;100.00
20909;BME280;10614;53.198;6.570;2023-02-01T04:07:16;101369.31;;;5.44;100.00
20909;BME280;10614;53.198;6.570;2023-02-01T04:09:18;101364.97;;;5.44;100.00
20909;BME280;10614;53.198;6.570;2023-02-01T04:11:21;101378.91;;;5.40;100.00
20909;BME280;10614;53.198;6.570;2023-02-01T04:13:23;101364.16;;;5.39;100.00
20909;BME280;10614;53.198;6.570;2023-02-01T04:15:25;101369.38;;;5.38;100.00
20909;BME280;10614;53.198;6.570;2023-02-01T04:17:27;101378.06;;;5.38;100.00
20909;BME280;10614;53.198;6.570;2023-02-01T04:19:28;101354.56;;;5.40;100.00
20909;BME280;10614;53.198;6.570;2023-02-01T04:21:30;101369.38;;;5.39;100.00
20909;BME280;10614;53.198;6.570;2023-02-01T04:23:31;101352.81;;;5.40;100.00
20909;BME280;10614;53.198;6.570;2023-02-01T04:25:33;101358.91;;;5.41;100.00
20909;BME280;10614;53.198;6.570;2023-02-01T04:27:36;101355.41;;;5.43;100.00
20909;BME280;10614;53.198;6.570;2023-02-01T04:29:38;101357.09;;;5.47;100.00
20909;BME280;10614;53.198;6.570;2023-02-01T04:31:40;101389.31;;;5.45;100.00
20909;BME280;10614;53.198;6.570;2023-02-01T04:33:42;101361.44;;;5.47;100.00
20909;BME280;10614;53.198;6.570;2023-02-01T04:35:43;101368.41;;;5.48;100.00
20909;BME280;10614;53.198;6.570;2023-02-01T04:37:45;101378.84;;;5.48;100.00
20909;BME280;10614;53.198;6.570;2023-02-01T04:39:46;101354.47;;;5.49;100.00
20909;BME280;10614;53.198;6.570;2023-02-01T04:41:48;101365.81;;;5.48;100.00
20909;BME280;10614;53.198;6.570;2023-02-01T04:43:51;101365.81;;;5.46;100.00
20909;BME280;10614;53.198;6.570;2023-02-01T04:45:53;101339.69;;;5.46;100.00
20909;BME280;10614;53.198;6.570;2023-02-01T04:47:55;101346.69;;;5.46;100.00
20909;BME280;10614;53.198;6.570;2023-02-01T04:49:56;101344.91;;;5.46;100.00
20909;BME280;10614;53.198;6.570;2023-02-01T04:51:58;101351.91;;;5.44;100.00
20909;BME280;10614;53.198;6.570;2023-02-01T04:53:59;101364.06;;;5.47;100.00
20909;BME280;10614;53.198;6.570;2023-02-01T04:56:01;101338.81;;;5.47;100.00
20909;BME280;10614;53.198;6.570;2023-02-01T04:58:03;101338.84;;;5.43;100.00
20909;BME280;10614;53.198;6.570;2023-02-01T05:00:08;101351.91;;;5.44;100.00
20909;BME280;10614;53.198;6.570;2023-02-01T05:02:10;101344.94;;;5.45;100.00
20909;BME280;10614;53.198;6.570;2023-02-01T05:04:11;101361.44;;;5.45;100.00
20909;BME280;10614;53.198;6.570;2023-02-01T05:06:13;101364.91;;;5.47;100.00
20909;BME280;10614;53.198;6.570;2023-02-01T05:08:15;101344.88;;;5.49;100.00
20909;BME280;10614;53.198;6.570;2023-02-01T05:10:17;101334.47;;;5.48;100.00
20909;BME280;10614;53.198;6.570;2023-02-01T05:12:18;101330.97;;;5.47;100.00
20909;BME280;10614;53.198;6.570;2023-02-01T05:14:37;101338.78;;;5.49;100.00
20909;BME280;10614;53.198;6.570;2023-02-01T05:16:40;101347.53;;;5.45;100.00
20909;BME280;10614;53.198;6.570;2023-02-01T05:18:42;101331.81;;;5.49;100.00
20909;BME280;10614;53.198;6.570;2023-02-01T05:20:44;101345.78;;;5.47;100.00
20909;BME280;10614;53.198;6.570;2023-02-01T05:22:45;101336.25;;;5.44;100.00
20909;BME280;10614;53.198;6.570;2023-02-01T05:24:47;101336.25;;;5.44;100.00
20909;BME280;10614;53.198;6.570;2023-02-01T05:26:49;101335.38;;;5.44;100.00
20909;BME280;10614;53.198;6.570;2023-02-01T05:28:51;101332.81;;;5.39;100.00
20909;BME280;10614;53.198;6.570;2023-02-01T05:30:53;101358.03;;;5.42;100.00
20909;BME280;10614;53.198;6.570;2023-02-01T05:32:56;101358.88;;;5.42;100.00
20909;BME280;10614;53.198;6.570;2023-02-01T05:34:57;101385.84;;;5.44;100.00
20909;BME280;10614;53.198;6.570;2023-02-01T05:36:59;101369.28;;;5.45;100.00
20909;BME280;10614;53.198;6.570;2023-02-01T05:39:01;101362.31;;;5.47;100.00
20909;BME280;10614;53.198;6.570;2023-02-01T05:41:02;101389.28;;;5.49;100.00
20909;BME280;10614;53.198;6.570;2023-02-01T05:43:04;101382.25;;;5.55;100.00
20909;BME280;10614;53.198;6.570;2023-02-01T05:45:07;101395.28;;;5.58;100.00
20909;BME280;10614;53.198;6.570;2023-02-01T05:47:09;101390.91;;;5.60;100.00
20909;BME280;10614;53.198;6.570;2023-02-01T05:49:12;101367.38;;;5.63;100.00
20909;BME280;10614;53.198;6.570;2023-02-01T05:51:14;101375.25;;;5.60;100.00
20909;BME280;10614;53.198;6.570;2023-02-01T05:53:15;101374.34;;;5.62;100.00
20909;BME280;10614;53.198;6.570;2023-02-01T05:55:17;101399.56;;;5.62;100.00
20909;BME280;10614;53.198;6.570;2023-02-01T05:57:18;101396.09;;;5.64;100.00
20909;BME280;10614;53.198;6.570;2023-02-01T05:59:20;101357.78;;;5.62;100.00
20909;BME280;10614;53.198;6.570;2023-02-01T06:01:22;101361.25;;;5.64;100.00
20909;BME280;10614;53.198;6.570;2023-02-01T06:03:24;101357.78;;;5.65;100.00
20909;BME280;10614;53.198;6.570;2023-02-01T06:05:27;101364.75;;;5.64;100.00
20909;BME280;10614;53.198;6.570;2023-02-01T06:07:28;101358.63;;;5.64;100.00
20909;BME280;10614;53.198;6.570;2023-02-01T06:09:32;101363.91;;;5.62;100.00
20909;BME280;10614;53.198;6.570;2023-02-01T06:11:34;101381.28;;;5.65;100.00
20909;BME280;10614;53.198;6.570;2023-02-01T06:13:36;101362.16;;;5.63;100.00
20909;BME280;10614;53.198;6.570;2023-02-01T06:15:38;101365.66;;;5.60;100.00
20909;BME280;10614;53.198;6.570;2023-02-01T06:17:43;101349.16;;;5.58;100.00
20909;BME280;10614;53.198;6.570;2023-02-01T06:19:45;101366.56;;;5.58;100.00
20909;BME280;10614;53.198;6.570;2023-02-01T06:21:50;101372.66;;;5.58;100.00
20909;BME280;10614;53.198;6.570;2023-02-01T06:23:52;101378.78;;;5.56;100.00
20909;BME280;10614;53.198;6.570;2023-02-01T06:25:58;101360.47;;;5.57;100.00
20909;BME280;10614;53.198;6.570;2023-02-01T06:28:01;101358.72;;;5.58;100.00
20909;BME280;10614;53.198;6.570;2023-02-01T06:30:06;101372.69;;;5.54;100.00
20909;BME280;10614;53.198;6.570;2023-02-01T06:32:07;101394.47;;;5.53;100.00
20909;BME280;10614;53.198;6.570;2023-02-01T06:34:09;101362.25;;;5.52;100.00
20909;BME280;10614;53.198;6.570;2023-02-01T06:36:12;101384.91;;;5.52;100.00
20909;BME280;10614;53.198;6.570;2023-02-01T06:38:17;101391.88;;;5.51;100.00
20909;BME280;10614;53.198;6.570;2023-02-01T06:40:19;101372.75;;;5.50;100.00
20909;BME280;10614;53.198;6.570;2023-02-01T06:42:20;101379.63;;;5.55;100.00
20909;BME280;10614;53.198;6.570;2023-02-01T06:44:23;101387.50;;;5.52;100.00
20909;BME280;10614;53.198;6.570;2023-02-01T06:46:24;101379.66;;;5.53;100.00
20909;BME280;10614;53.198;6.570;2023-02-01T06:48:26;101382.28;;;5.53;100.00
20909;BME280;10614;53.198;6.570;2023-02-01T06:50:27;101384.00;;;5.56;100.00
20909;BME280;10614;53.198;6.570;2023-02-01T06:52:29;101380.50;;;5.57;100.00
20909;BME280;10614;53.198;6.570;2023-02-01T06:54:32;101383.09;;;5.57;100.00
20909;BME280;10614;53.198;6.570;2023-02-01T06:56:34;101388.31;;;5.60;100.00
20909;BME280;10614;53.198;6.570;2023-02-01T06:58:35;101387.41;;;5.59;100.00
20909;BME280;10614;53.198;6.570;2023-02-01T07:00:39;101395.25;;;5.61;100.00
20909;BME280;10614;53.198;6.570;2023-02-01T07:02:41;101404.81;;;5.62;100.00
20909;BME280;10614;53.198;6.570;2023-02-01T07:04:42;101400.47;;;5.62;100.00
20909;BME280;10614;53.198;6.570;2023-02-01T07:06:44;101411.78;;;5.61;100.00
20909;BME280;10614;53.198;6.570;2023-02-01T07:08:45;101410.91;;;5.62;100.00
20909;BME280;10614;53.198;6.570;2023-02-01T07:10:48;101391.75;;;5.62;100.00
20909;BME280;10614;53.198;6.570;2023-02-01T07:12:50;101424.84;;;5.63;100.00
20909;BME280;10614;53.198;6.570;2023-02-01T07:14:52;101422.22;;;5.61;100.00
20909;BME280;10614;53.198;6.570;2023-02-01T07:16:53;101420.47;;;5.62;100.00
20909;BME280;10614;53.198;6.570;2023-02-01T07:18:55;101420.47;;;5.63;100.00
20909;BME280;10614;53.198;6.570;2023-02-01T07:20:57;101404.78;;;5.63;100.00
20909;BME280;10614;53.198;6.570;2023-02-01T07:22:59;101397.81;;;5.65;100.00
20909;BME280;10614;53.198;6.570;2023-02-01T07:25:01;101377.78;;;5.66;100.00
20909;BME280;10614;53.198;6.570;2023-02-01T07:27:04;101409.13;;;5.66;100.00
20909;BME280;10614;53.198;6.570;2023-02-01T07:29:06;101386.50;;;5.65;100.00
20909;BME280;10614;53.198;6.570;2023-02-01T07:31:09;101405.66;;;5.64;100.00
20909;BME280;10614;53.198;6.570;2023-02-01T07:33:11;101389.97;;;5.64;100.00
20909;BME280;10614;53.198;6.570;2023-02-01T07:35:12;101389.13;;;5.65;100.00
20909;BME280;10614;53.198;6.570;2023-02-01T07:37:14;101391.72;;;5.65;100.00
20909;BME280;10614;53.198;6.570;2023-02-01T07:39:17;101385.66;;;5.64;100.00
20909;BME280;10614;53.198;6.570;2023-02-01T07:41:18;101399.56;;;5.65;100.00
20909;BME280;10614;53.198;6.570;2023-02-01T07:43:21;101407.38;;;5.66;100.00
20909;BME280;10614;53.198;6.570;2023-02-01T07:45:23;101417.84;;;5.65;100.00
20909;BME280;10614;53.198;6.570;2023-02-01T07:47:25;101397.84;;;5.61;100.00
20909;BME280;10614;53.198;6.570;2023-02-01T07:49:27;101400.44;;;5.64;100.00
20909;BME280;10614;53.198;6.570;2023-02-01T07:51:28;101409.97;;;5.68;100.00
20909;BME280;10614;53.198;6.570;2023-02-01T07:53:31;101411.72;;;5.66;100.00
20909;BME280;10614;53.198;6.570;2023-02-01T07:55:33;101414.34;;;5.67;100.00
20909;BME280;10614;53.198;6.570;2023-02-01T07:57:36;101409.16;;;5.64;100.00
20909;BME280;10614;53.198;6.570;2023-02-01T07:59:39;101416.09;;;5.67;100.00
20909;BME280;10614;53.198;6.570;2023-02-01T08:02:01;101429.16;;;5.67;100.00
20909;BME280;10614;53.198;6.570;2023-02-01T08:04:03;101433.47;;;5.68;100.00
20909;BME280;10614;53.198;6.570;2023-02-01T08:06:05;101416.91;;;5.72;100.00
20909;BME280;10614;53.198;6.570;2023-02-01T08:08:06;101399.53;;;5.66;100.00
20909;BME280;10614;53.198;6.570;2023-02-01T08:10:09;101434.34;;;5.70;100.00
20909;BME280;10614;53.198;6.570;2023-02-01T08:12:11;101404.78;;;5.65;100.00
20909;BME280;10614;53.198;6.570;2023-02-01T08:14:13;101408.22;;;5.68;100.00
20909;BME280;10614;53.198;6.570;2023-02-01T08:16:18;101394.28;;;5.69;100.00
20909;BME280;10614;53.198;6.570;2023-02-01T08:18:20;101429.97;;;5.70;100.00
20909;BME280;10614;53.198;6.570;2023-02-01T08:20:22;101414.34;;;5.67;100.00
20909;BME280;10614;53.198;6.570;2023-02-01T08:22:25;101403.00;;;5.70;100.00
20909;BME280;10614;53.198;6.570;2023-02-01T08:24:27;101398.63;;;5.74;100.00
20909;BME280;10614;53.198;6.570;2023-02-01T08:26:29;101392.50;;;5.73;100.00
20909;BME280;10614;53.198;6.570;2023-02-01T08:28:31;101411.69;;;5.72;100.00
20909;BME280;10614;53.198;6.570;2023-02-01T08:30:32;101397.72;;;5.75;100.00
20909;BME280;10614;53.198;6.570;2023-02-01T08:32:35;101416.03;;;5.71;100.00
20909;BME280;10614;53.198;6.570;2023-02-01T08:34:37;101381.19;;;5.74;100.00
20909;BME280;10614;53.198;6.570;2023-02-01T08:36:38;101388.13;;;5.75;100.00
20909;BME280;10614;53.198;6.570;2023-02-01T08:38:41;101409.03;;;5.75;100.00
20909;BME280;10614;53.198;6.570;2023-02-01T08:40:42;101397.72;;;5.76;100.00
20909;BME280;10614;53.198;6.570;2023-02-01T08:42:44;101384.66;;;5.76;100.00
20909;BME280;10614;53.198;6.570;2023-02-01T08:44:55;101397.72;;;5.76;100.00
20909;BME280;10614;53.198;6.570;2023-02-01T08:46:57;101376.81;;;5.76;100.00
20909;BME280;10614;53.198;6.570;2023-02-01T08:49:00;101379.38;;;5.79;100.00
20909;BME280;10614;53.198;6.570;2023-02-01T08:51:03;101395.91;;;5.78;100.00
20909;BME280;10614;53.198;6.570;2023-02-01T08:53:05;101370.69;;;5.77;100.00
20909;BME280;10614;53.198;6.570;2023-02-01T08:55:07;101393.34;;;5.75;100.00
20909;BME280;10614;53.198;6.570;2023-02-01T08:57:11;101382.84;;;5.78;100.00
20909;BME280;10614;53.198;6.570;2023-02-01T08:59:13;101357.63;;;5.77;100.00
20909;BME280;10614;53.198;6.570;2023-02-01T09:01:16;101364.56;;;5.80;100.00
20909;BME280;10614;53.198;6.570;2023-02-01T09:03:18;101368.94;;;5.79;100.00
20909;BME280;10614;53.198;6.570;2023-02-01T09:05:21;101380.28;;;5.75;100.00
20909;BME280;10614;53.198;6.570;2023-02-01T09:07:26;101354.16;;;5.75;100.00
20909;BME280;10614;53.198;6.570;2023-02-01T09:09:28;101363.75;;;5.75;100.00
20909;BME280;10614;53.198;6.570;2023-02-01T09:11:30;101353.31;;;5.75;100.00
20909;BME280;10614;53.198;6.570;2023-02-01T09:13:32;101348.06;;;5.76;100.00
20909;BME280;10614;53.198;6.570;2023-02-01T09:15:36;101358.53;;;5.76;100.00
20909;BME280;10614;53.198;6.570;2023-02-01T09:17:38;101332.41;;;5.73;100.00
20909;BME280;10614;53.198;6.570;2023-02-01T09:19:41;101344.63;;;5.74;100.00
20909;BME280;10614;53.198;6.570;2023-02-01T09:21:45;101347.19;;;5.76;100.00
20909;BME280;10614;53.198;6.570;2023-02-01T09:23:47;101342.88;;;5.73;100.00
20909;BME280;10614;53.198;6.570;2023-02-01T09:25:48;101356.78;;;5.75;100.00
20909;BME280;10614;53.198;6.570;2023-02-01T09:27:51;101346.31;;;5.75;100.00
20909;BME280;10614;53.198;6.570;2023-02-01T09:29:53;101358.47;;;5.79;100.00
20909;BME280;10614;53.198;6.570;2023-02-01T09:31:55;101330.59;;;5.80;100.00
20909;BME280;10614;53.198;6.570;2023-02-01T09:33:57;101335.88;;;5.75;100.00
20909;BME280;10614;53.198;6.570;2023-02-01T09:36:00;101326.28;;;5.77;100.00
20909;BME280;10614;53.198;6.570;2023-02-01T09:38:04;101315.81;;;5.79;100.00
20909;BME280;10614;53.198;6.570;2023-02-01T09:40:08;101314.06;;;5.78;100.00
20909;BME280;10614;53.198;6.570;2023-02-01T09:42:25;101316.69;;;5.78;100.00
20909;BME280;10614;53.198;6.570;2023-02-01T09:44:53;101315.78;;;5.80;100.00
20909;BME280;10614;53.198;6.570;2023-02-01T09:46:58;101306.22;;;5.79;100.00
20909;BME280;10614;53.198;6.570;2023-02-01T09:49:03;101310.56;;;5.80;100.00
20909;BME280;10614;53.198;6.570;2023-02-01T09:51:06;101299.25;;;5.81;100.00
20909;BME280;10614;53.198;6.570;2023-02-01T09:53:19;101303.63;;;5.81;100.00
20909;BME280;10614;53.198;6.570;2023-02-01T09:55:28;101287.03;;;5.82;100.00
20909;BME280;10614;53.198;6.570;2023-02-01T09:57:41;101291.44;;;5.78;100.00
20909;BME280;10614;53.198;6.570;2023-02-01T09:59:46;101314.06;;;5.78;100.00
20909;BME280;10614;53.198;6.570;2023-02-01T10:01:51;101284.53;;;5.74;100.00
20909;BME280;10614;53.198;6.570;2023-02-01T10:03:57;101287.16;;;5.71;100.00
20909;BME280;10614;53.198;6.570;2023-02-01T10:06:14;101268.00;;;5.74;100.00
20909;BME280;10614;53.198;6.570;2023-02-01T10:08:32;101272.38;;;5.71;100.00
20909;BME280;10614;53.198;6.570;2023-02-01T10:10:41;101255.88;;;5.69;100.00
20909;BME280;10614;53.198;6.570;2023-02-01T10:12:57;101289.81;;;5.68;100.00
20909;BME280;10614;53.198;6.570;2023-02-01T10:15:17;101260.28;;;5.64;100.00
20909;BME280;10614;53.198;6.570;2023-02-01T10:17:31;101268.19;;;5.60;100.00
20909;BME280;10614;53.198;6.570;2023-02-01T10:19:45;101283.84;;;5.58;100.00
20909;BME280;10614;53.198;6.570;2023-02-01T10:21:56;101237.75;;;5.56;100.00
20909;BME280;10614;53.198;6.570;2023-02-01T10:24:15;101276.06;;;5.55;100.00
20909;BME280;10614;53.198;6.570;2023-02-01T10:26:21;101288.28;;;5.52;100.00
20909;BME280;10614;53.198;6.570;2023-02-01T10:28:24;101282.16;;;5.54;100.00
20909;BME280;10614;53.198;6.570;2023-02-01T10:30:29;101301.34;;;5.52;100.00
20909;BME280;10614;53.198;6.570;2023-02-01T10:32:34;101262.13;;;5.55;100.00
20909;BME280;10614;53.198;6.570;2023-02-01T10:34:36;101258.69;;;5.53;100.00
20909;BME280;10614;53.198;6.570;2023-02-01T10:36:41;101252.59;;;5.52;100.00
20909;BME280;10614;53.198;6.570;2023-02-01T10:38:42;101275.19;;;5.55;100.00
20909;BME280;10614;53.198;6.570;2023-02-01T10:40:46;101250.81;;;5.57;100.00
20909;BME280;10614;53.198;6.570;2023-02-01T10:42:50;101270.75;;;5.61;100.00
20909;BME280;10614;53.198;6.570;2023-02-01T10:44:54;101245.44;;;5.68;100.00
20909;BME280;10614;53.198;6.570;2023-02-01T10:46:57;101235.81;;;5.71;100.00
20909;BME280;10614;53.198;6.570;2023-02-01T10:49:02;101286.25;;;5.75;100.00
20909;BME280;10614;53.198;6.570;2023-02-01T10:51:16;101247.00;;;5.81;100.00
20909;BME280;10614;53.198;6.570;2023-02-01T10:53:24;101250.44;;;5.83;100.00
20909;BME280;10614;53.198;6.570;2023-02-01T10:55:37;101261.75;;;5.85;100.00